Time;durP1;ratioP1;P1;durP2;ratioP2;P2;SDS_P1;SDS_P2;PMS_P1;PMS_P2;Temp;Humidity;BMP_temperature;BMP_pressure;BME280_temperature;BME280_humidity;BME280_pressure;Samples;Min_cycle;Max_cycle;Signal;HPM_P1;HPM_P2
2021/12/14 00:00:54;;;;;;;;;14.25;10.50;;;;;;;;4980425;28;11208;-83
2021/12/14 00:03:26;;;;;;;;;14.25;12.25;;;;;;;;4982494;28;11944;-77
2021/12/14 00:05:55;;;;;;;;;13.00;13.00;;;;;;;;4972750;28;11133;-77
2021/12/14 00:08:25;;;;;;;;;9.25;6.50;;;;;;;;4985425;28;11656;-78
2021/12/14 00:11:25;;;;;;;;;15.00;10.75;;;;;;;;4982768;28;10964;-78
2021/12/14 00:13:58;;;;;;;;;12.25;12.25;;;;;;;;4972638;28;11860;-79
2021/12/14 00:16:25;;;;;;;;;13.25;11.25;;;;;;;;4985014;28;11692;-81
2021/12/14 00:18:52;;;;;;;;;10.25;9.75;;;;;;;;4985739;28;11849;-85
2021/12/14 00:21:29;;;;;;;;;18.75;13.00;;;;;;;;4979132;28;11033;-79
2021/12/14 00:24:09;;;;;;;;;18.50;13.25;;;;;;;;4963540;28;11206;-77
2021/12/14 00:26:40;;;;;;;;;15.50;11.00;;;;;;;;4975921;28;11117;-80
2021/12/14 00:29:09;;;;;;;;;16.25;16.25;;;;;;;;4977934;28;11034;-85
2021/12/14 00:31:37;;;;;;;;;12.25;9.75;;;;;;;;4979530;28;11172;-82
2021/12/14 00:34:06;;;;;;;;;12.25;9.75;;;;;;;;4984644;28;11191;-79
2021/12/14 00:36:36;;;;;;;;;11.25;11.25;;;;;;;;4983454;28;10995;-79
2021/12/14 00:39:06;;;;;;;;;14.00;11.50;;;;;;;;4977312;28;10984;-77
2021/12/14 00:41:35;;;;;;;;;11.50;10.50;;;;;;;;4976088;28;10965;-80
2021/12/14 00:44:03;;;;;;;;;13.00;11.75;;;;;;;;4975994;28;11144;-79
2021/12/14 00:46:30;;;;;;;;;9.00;9.00;;;;;;;;4977563;28;10812;-81
2021/12/14 00:48:58;;;;;;;;;11.00;10.00;;;;;;;;4983208;28;10849;-80
2021/12/14 00:51:28;;;;;;;;;9.75;9.75;;;;;;;;4973896;28;10944;-86
2021/12/14 00:53:58;;;;;;;;;18.00;15.25;;;;;;;;4984663;28;10913;-83
2021/12/14 00:56:26;;;;;;;;;10.25;9.25;;;;;;;;4977834;28;10981;-81
2021/12/14 00:58:54;;;;;;;;;14.75;14.25;;;;;;;;4975998;28;11942;-85
2021/12/14 01:01:26;;;;;;;;;17.25;13.25;;;;;;;;4965787;28;11065;-80
2021/12/14 01:03:57;;;;;;;;;13.75;12.00;;;;;;;;4972112;28;11034;-83
2021/12/14 01:06:28;;;;;;;;;13.00;10.75;;;;;;;;4977641;28;10925;-81
2021/12/14 01:08:58;;;;;;;;;16.00;13.00;;;;;;;;4980259;28;11116;-81
2021/12/14 01:11:32;;;;;;;;;20.00;14.50;;;;;;;;4978061;28;11064;-81
2021/12/14 01:14:05;;;;;;;;;18.50;13.00;;;;;;;;4971861;28;11223;-76
2021/12/14 01:16:47;;;;;;;;;15.00;13.25;;;;;;;;4983718;28;11198;-83
2021/12/14 01:19:19;;;;;;;;;11.75;11.00;;;;;;;;4979264;28;10992;-83
2021/12/14 01:22:13;;;;;;;;;15.75;13.25;;;;;;;;4980205;28;11926;-78
2021/12/14 01:25:03;;;;;;;;;11.00;11.00;;;;;;;;4978519;28;11042;-76
2021/12/14 01:27:35;;;;;;;;;10.50;10.50;;;;;;;;4976557;28;10999;-80
2021/12/14 01:30:07;;;;;;;;;15.25;13.25;;;;;;;;4974899;28;11067;-84
2021/12/14 01:32:39;;;;;;;;;15.75;12.50;;;;;;;;4970517;28;10928;-85
2021/12/14 01:35:13;;;;;;;;;10.00;9.25;;;;;;;;4968082;28;11017;-81
2021/12/14 01:37:46;;;;;;;;;12.75;12.75;;;;;;;;4983647;28;11680;-87
2021/12/14 01:40:46;;;;;;;;;10.50;6.00;;;;;;;;4981547;28;10828;-79
2021/12/14 01:43:08;;;;;;;;;22.00;14.00;;;;;;;;4974602;28;10698;-82
2021/12/14 01:45:35;;;;;;;;;14.25;11.50;;;;;;;;4975346;28;10933;-77
2021/12/14 01:48:03;;;;;;;;;16.00;11.75;;;;;;;;4970302;28;11003;-77
2021/12/14 01:50:34;;;;;;;;;14.00;10.75;;;;;;;;4975041;28;10947;-79
2021/12/14 01:53:02;;;;;;;;;14.75;13.75;;;;;;;;4977454;28;10925;-80
2021/12/14 01:55:34;;;;;;;;;15.00;13.25;;;;;;;;4970216;28;10894;-81
2021/12/14 01:58:06;;;;;;;;;17.00;10.25;;;;;;;;4981107;28;10820;-83
2021/12/14 02:00:37;;;;;;;;;12.00;11.00;;;;;;;;4968094;28;10688;-83
2021/12/14 02:03:08;;;;;;;;;10.25;9.25;;;;;;;;4978540;28;11487;-78
2021/12/14 02:05:37;;;;;;;;;10.00;10.00;;;;;;;;4980387;28;10929;-85
2021/12/14 02:08:13;;;;;;;;;11.50;10.25;;;;;;;;4970471;28;10897;-79
2021/12/14 02:10:43;;;;;;;;;9.75;7.00;;;;;;;;4977690;28;10813;-82
2021/12/14 02:13:10;;;;;;;;;13.75;11.00;;;;;;;;4976087;28;10718;-78
2021/12/14 02:15:41;;;;;;;;;19.75;14.00;;;;;;;;4977451;28;10967;-83
2021/12/14 02:18:14;;;;;;;;;11.75;11.00;;;;;;;;4979346;28;10961;-86
2021/12/14 02:20:46;;;;;;;;;10.75;9.50;;;;;;;;4983150;28;11003;-83
2021/12/14 02:23:15;;;;;;;;;12.00;10.00;;;;;;;;4977294;28;10909;-78
2021/12/14 02:25:43;;;;;;;;;18.50;14.25;;;;;;;;4974034;28;10758;-86
2021/12/14 02:28:15;;;;;;;;;15.25;13.25;;;;;;;;4984388;28;10928;-78
2021/12/14 02:30:46;;;;;;;;;16.25;12.25;;;;;;;;4974989;28;10926;-86
2021/12/14 02:33:17;;;;;;;;;15.25;12.50;;;;;;;;4973215;28;10997;-77
2021/12/14 02:35:47;;;;;;;;;12.00;8.00;;;;;;;;4980845;28;11150;-86
2021/12/14 02:38:17;;;;;;;;;11.25;7.50;;;;;;;;4969118;28;10846;-81
2021/12/14 02:40:54;;;;;;;;;16.75;13.75;;;;;;;;4975291;28;11705;-83
2021/12/14 02:43:26;;;;;;;;;18.25;14.50;;;;;;;;4978398;28;11107;-85
2021/12/14 02:45:54;;;;;;;;;18.50;14.25;;;;;;;;4976584;28;10954;-84
2021/12/14 02:48:25;;;;;;;;;14.00;13.75;;;;;;;;4981516;28;10999;-77
2021/12/14 02:50:54;;;;;;;;;7.50;7.50;;;;;;;;4971647;28;10925;-79
2021/12/14 02:53:21;;;;;;;;;9.75;8.50;;;;;;;;4975914;28;10903;-77
2021/12/14 02:55:49;;;;;;;;;14.75;14.75;;;;;;;;4977141;28;11015;-77
2021/12/14 02:58:16;;;;;;;;;18.00;14.00;;;;;;;;4977592;28;10816;-81
2021/12/14 03:00:47;;;;;;;;;19.75;16.75;;;;;;;;4977028;28;10909;-84
2021/12/14 03:03:14;;;;;;;;;16.00;13.00;;;;;;;;4972507;28;11045;-77
2021/12/14 03:05:45;;;;;;;;;13.50;13.50;;;;;;;;4989054;28;11049;-80
2021/12/14 03:08:17;;;;;;;;;14.50;14.50;;;;;;;;4972058;28;11003;-84
2021/12/14 03:10:55;;;;;;;;;19.50;15.75;;;;;;;;4976693;28;11185;-80
2021/12/14 03:13:24;;;;;;;;;20.50;18.00;;;;;;;;4976978;28;11296;-83
2021/12/14 03:15:53;;;;;;;;;14.25;12.75;;;;;;;;4977626;28;11262;-80
2021/12/14 03:18:23;;;;;;;;;14.50;13.75;;;;;;;;4982129;28;11166;-79
2021/12/14 03:20:53;;;;;;;;;14.50;14.25;;;;;;;;4980414;28;11236;-83
2021/12/14 03:23:26;;;;;;;;;16.00;16.00;;;;;;;;4979274;28;11222;-81
2021/12/14 03:25:55;;;;;;;;;15.00;14.00;;;;;;;;4970619;28;11144;-81
2021/12/14 03:28:25;;;;;;;;;20.25;17.25;;;;;;;;4980039;28;11239;-78
2021/12/14 03:31:01;;;;;;;;;14.75;12.50;;;;;;;;4973952;28;11653;-81
2021/12/14 03:33:33;;;;;;;;;14.25;14.00;;;;;;;;4969223;28;12031;-78
2021/12/14 03:36:04;;;;;;;;;14.75;13.75;;;;;;;;4977212;28;12203;-78
2021/12/14 03:38:35;;;;;;;;;19.00;16.50;;;;;;;;4977054;28;11112;-82
2021/12/14 03:41:07;;;;;;;;;18.75;13.25;;;;;;;;4972789;28;11358;-78
2021/12/14 03:43:36;;;;;;;;;19.00;16.00;;;;;;;;4975553;28;11354;-78
2021/12/14 03:46:04;;;;;;;;;18.75;16.50;;;;;;;;4974457;28;12303;-77
2021/12/14 03:48:32;;;;;;;;;18.00;15.50;;;;;;;;4982808;28;12594;-79
2021/12/14 03:51:01;;;;;;;;;25.00;21.75;;;;;;;;4980237;28;11253;-79
2021/12/14 03:53:29;;;;;;;;;28.50;21.50;;;;;;;;4978008;28;11634;-82
2021/12/14 03:56:01;;;;;;;;;30.00;22.75;;;;;;;;4970077;28;11619;-80
2021/12/14 03:58:34;;;;;;;;;24.50;21.00;;;;;;;;4970110;28;11586;-80
2021/12/14 04:01:09;;;;;;;;;17.75;15.25;;;;;;;;4976377;28;11568;-77
2021/12/14 04:03:37;;;;;;;;;23.75;14.50;;;;;;;;4972009;28;11674;-81
2021/12/14 04:06:06;;;;;;;;;21.00;18.00;;;;;;;;4978446;28;11450;-83
2021/12/14 04:08:34;;;;;;;;;18.50;17.75;;;;;;;;4979887;28;11709;-80
2021/12/14 04:11:05;;;;;;;;;22.00;14.00;;;;;;;;4975266;28;12409;-77
2021/12/14 04:13:36;;;;;;;;;17.25;15.50;;;;;;;;4978186;28;11581;-82
2021/12/14 04:16:04;;;;;;;;;25.00;20.50;;;;;;;;4983096;28;11573;-78
2021/12/14 04:18:31;;;;;;;;;13.00;13.00;;;;;;;;4985428;28;11551;-79
2021/12/14 04:21:00;;;;;;;;;11.25;11.25;;;;;;;;4980135;28;11554;-77
2021/12/14 04:23:30;;;;;;;;;10.50;10.50;;;;;;;;4981694;28;11513;-80
2021/12/14 04:26:02;;;;;;;;;21.25;16.25;;;;;;;;4971397;28;11368;-84
2021/12/14 04:28:42;;;;;;;;;9.50;9.00;;;;;;;;4986786;28;11279;-78
2021/12/14 04:31:10;;;;;;;;;14.75;13.50;;;;;;;;4971644;28;12407;-79
2021/12/14 04:33:41;;;;;;;;;16.75;15.25;;;;;;;;4976580;28;11575;-79
2021/12/14 04:36:11;;;;;;;;;9.50;9.50;;;;;;;;4968006;28;11661;-86
2021/12/14 04:38:48;;;;;;;;;15.00;15.00;;;;;;;;4980123;28;11233;-83
2021/12/14 04:52:33;;;;;;;;;13.00;13.00;;;;;;;;4976966;28;10824;-78
2021/12/14 04:55:04;;;;;;;;;14.00;12.75;;;;;;;;4975699;28;11083;-79
2021/12/14 04:57:36;;;;;;;;;15.75;13.75;;;;;;;;4977135;28;11051;-81
2021/12/14 05:00:21;;;;;;;;;14.00;10.75;;;;;;;;4977493;28;10917;-79
2021/12/14 05:02:49;;;;;;;;;13.75;13.50;;;;;;;;4976362;28;10961;-81
2021/12/14 05:05:19;;;;;;;;;12.00;12.00;;;;;;;;4987177;28;10955;-78
2021/12/14 05:09:19;;;;;;;;;19.25;19.25;;;;;;;;4981286;28;11005;-80
2021/12/14 05:10:39;;;;;;;;;19.75;13.75;;;;;;;;4981188;28;10943;-80
2021/12/14 05:13:07;;;;;;;;;13.50;13.50;;;;;;;;4978282;28;11579;-82
2021/12/14 05:15:37;;;;;;;;;18.75;16.50;;;;;;;;4979090;28;10746;-81
2021/12/14 05:18:10;;;;;;;;;15.00;14.00;;;;;;;;4975251;28;10916;-81
2021/12/14 05:20:37;;;;;;;;;18.25;15.00;;;;;;;;4976325;28;10877;-79
2021/12/14 05:23:05;;;;;;;;;15.25;14.25;;;;;;;;4987423;28;10886;-83
2021/12/14 05:25:32;;;;;;;;;17.50;12.50;;;;;;;;4978507;28;10851;-78
2021/12/14 05:28:02;;;;;;;;;15.50;13.50;;;;;;;;4983727;28;10849;-82
2021/12/14 05:30:33;;;;;;;;;15.00;15.00;;;;;;;;4984707;28;10904;-81
2021/12/14 05:33:03;;;;;;;;;18.25;16.00;;;;;;;;4972956;28;11056;-80
2021/12/14 05:35:31;;;;;;;;;13.75;13.75;;;;;;;;4972391;28;11032;-77
2021/12/14 05:38:01;;;;;;;;;23.50;17.50;;;;;;;;4970416;28;10922;-77
2021/12/14 05:40:44;;;;;;;;;10.50;9.50;;;;;;;;4977987;28;11050;-77
2021/12/14 05:43:13;;;;;;;;;15.25;15.25;;;;;;;;4967118;28;11054;-79
2021/12/14 05:45:44;;;;;;;;;14.75;12.25;;;;;;;;4968939;28;10927;-81
2021/12/14 05:48:16;;;;;;;;;16.00;13.00;;;;;;;;4969802;28;13516;-81
2021/12/14 05:50:46;;;;;;;;;14.50;14.50;;;;;;;;4967582;28;10930;-82
2021/12/14 05:53:20;;;;;;;;;16.75;14.75;;;;;;;;4967994;28;10950;-80
2021/12/14 05:55:48;;;;;;;;;15.75;14.00;;;;;;;;4967609;28;11083;-80
2021/12/14 05:58:18;;;;;;;;;18.50;18.50;;;;;;;;4967511;28;10932;-79
2021/12/14 06:00:51;;;;;;;;;14.25;14.25;;;;;;;;4970969;28;11663;-83
2021/12/14 06:03:21;;;;;;;;;9.50;6.00;;;;;;;;4968648;28;10965;-80
2021/12/14 06:05:49;;;;;;;;;23.25;18.75;;;;;;;;4972558;28;11145;-80
2021/12/14 06:08:22;;;;;;;;;20.75;16.25;;;;;;;;4971286;28;11210;-79
2021/12/14 06:10:52;;;;;;;;;18.00;16.75;;;;;;;;4977265;28;11098;-79
2021/12/14 06:13:19;;;;;;;;;22.75;17.50;;;;;;;;4973522;28;11285;-82
2021/12/14 06:15:49;;;;;;;;;20.25;18.75;;;;;;;;4975999;28;11195;-81
2021/12/14 06:18:24;;;;;;;;;18.00;17.25;;;;;;;;4972205;28;11109;-78
2021/12/14 06:20:52;;;;;;;;;18.00;15.25;;;;;;;;4972311;28;11771;-76
2021/12/14 06:23:26;;;;;;;;;19.50;19.50;;;;;;;;4964436;28;10859;-81
2021/12/14 06:25:53;;;;;;;;;27.25;16.75;;;;;;;;4964032;28;11775;-80
2021/12/14 06:28:26;;;;;;;;;23.25;20.50;;;;;;;;4966733;28;11002;-79
2021/12/14 06:30:56;;;;;;;;;19.50;19.25;;;;;;;;4970244;28;11040;-80
2021/12/14 06:33:29;;;;;;;;;20.75;17.25;;;;;;;;4973756;28;11022;-79
2021/12/14 06:36:00;;;;;;;;;15.25;14.25;;;;;;;;4979450;28;10976;-79
2021/12/14 06:38:29;;;;;;;;;16.75;15.50;;;;;;;;4981898;28;11708;-78
2021/12/14 06:41:06;;;;;;;;;15.25;15.25;;;;;;;;4978412;28;11602;-80
2021/12/14 06:43:37;;;;;;;;;22.75;17.75;;;;;;;;4975167;28;10866;-80
2021/12/14 06:46:11;;;;;;;;;23.00;15.25;;;;;;;;4983828;28;10858;-78
2021/12/14 06:48:40;;;;;;;;;14.00;14.00;;;;;;;;4981915;28;10766;-77
2021/12/14 06:51:11;;;;;;;;;21.25;14.50;;;;;;;;4987525;28;10779;-77
2021/12/14 06:53:39;;;;;;;;;26.00;16.25;;;;;;;;4981974;28;10801;-77
2021/12/14 06:56:09;;;;;;;;;19.75;15.75;;;;;;;;4982159;28;10957;-76
2021/12/14 06:58:39;;;;;;;;;18.75;17.50;;;;;;;;4983484;28;11705;-78
2021/12/14 07:01:11;;;;;;;;;26.00;19.50;;;;;;;;4975748;28;10800;-79
2021/12/14 07:03:41;;;;;;;;;18.25;16.25;;;;;;;;4972722;28;11057;-80
2021/12/14 07:06:10;;;;;;;;;18.00;15.00;;;;;;;;4979512;28;10947;-77
2021/12/14 07:08:38;;;;;;;;;17.25;16.00;;;;;;;;4978917;28;11188;-78
2021/12/14 07:11:05;;;;;;;;;16.00;16.00;;;;;;;;4986127;28;11092;-76
2021/12/14 07:13:37;;;;;;;;;13.50;13.50;;;;;;;;4974645;28;11026;-79
2021/12/14 07:16:19;;;;;;;;;16.00;13.75;;;;;;;;4979117;28;11089;-78
2021/12/14 07:18:51;;;;;;;;;15.75;15.75;;;;;;;;4975968;28;11912;-79
2021/12/14 07:21:39;;;;;;;;;25.75;18.00;;;;;;;;4987837;28;11308;-81
2021/12/14 07:24:35;;;;;;;;;18.75;16.25;;;;;;;;4981376;28;11296;-78
2021/12/14 07:27:26;;;;;;;;;19.50;16.00;;;;;;;;4997035;28;11211;-77
2021/12/14 07:29:55;;;;;;;;;19.00;14.75;;;;;;;;4978584;28;11215;-81
2021/12/14 07:35:27;;;;;;;;;21.50;16.00;;;;;;;;5098366;27;13585;-77
2021/12/14 07:37:56;;;;;;;;;20.75;17.50;;;;;;;;5082151;28;11037;-75
2021/12/14 07:40:26;;;;;;;;;17.50;16.00;;;;;;;;5089557;28;11121;-75
2021/12/14 07:43:11;;;;;;;;;22.50;18.75;;;;;;;;5081535;28;10828;-76
2021/12/14 07:45:39;;;;;;;;;19.00;14.75;;;;;;;;5071351;28;10921;-78
2021/12/14 07:48:07;;;;;;;;;15.50;14.50;;;;;;;;5075788;28;11986;-75
2021/12/14 07:50:44;;;;;;;;;25.00;17.00;;;;;;;;5080548;28;10791;-76
2021/12/14 07:53:12;;;;;;;;;16.00;16.00;;;;;;;;5073886;28;10893;-74
2021/12/14 07:55:42;;;;;;;;;17.50;17.50;;;;;;;;5079156;28;10922;-73
2021/12/14 07:58:10;;;;;;;;;18.50;16.75;;;;;;;;5085085;28;10854;-75
2021/12/14 08:00:40;;;;;;;;;19.75;16.25;;;;;;;;5081905;28;10911;-74
2021/12/14 08:03:09;;;;;;;;;17.25;16.75;;;;;;;;5052788;28;10754;-73
2021/12/14 08:05:40;;;;;;;;;20.75;18.25;;;;;;;;5042690;28;10847;-74
2021/12/14 08:08:15;;;;;;;;;16.75;11.75;;;;;;;;5048265;28;11751;-74
2021/12/14 08:10:46;;;;;;;;;15.75;15.00;;;;;;;;5046961;28;11073;-73
2021/12/14 08:13:16;;;;;;;;;21.50;19.00;;;;;;;;5052076;28;10968;-73
2021/12/14 08:15:49;;;;;;;;;19.25;18.00;;;;;;;;5051954;28;11012;-74
2021/12/14 08:18:20;;;;;;;;;16.00;15.00;;;;;;;;5051500;28;10838;-73
2021/12/14 08:20:53;;;;;;;;;23.75;19.00;;;;;;;;5060035;28;10819;-73
2021/12/14 08:23:23;;;;;;;;;24.75;19.00;;;;;;;;5047201;28;10988;-73
2021/12/14 08:25:53;;;;;;;;;24.25;22.25;;;;;;;;5056985;28;10992;-72
2021/12/14 08:28:21;;;;;;;;;26.50;22.50;;;;;;;;5055573;28;11172;-73
2021/12/14 08:30:55;;;;;;;;;20.00;18.25;;;;;;;;5056080;28;10889;-73
2021/12/14 08:33:25;;;;;;;;;28.75;19.25;;;;;;;;5068469;28;11994;-72
2021/12/14 08:35:56;;;;;;;;;15.00;15.00;;;;;;;;5079986;28;11111;-73
2021/12/14 08:38:23;;;;;;;;;22.00;18.75;;;;;;;;5079162;28;10980;-76
2021/12/14 08:40:53;;;;;;;;;27.75;25.50;;;;;;;;5078904;28;12069;-74
2021/12/14 08:43:26;;;;;;;;;19.75;19.75;;;;;;;;5065648;28;11612;-75
2021/12/14 08:45:57;;;;;;;;;24.25;18.50;;;;;;;;5062090;28;11221;-74
2021/12/14 08:48:29;;;;;;;;;26.25;22.00;;;;;;;;5057128;28;11307;-75
2021/12/14 08:51:01;;;;;;;;;25.50;21.25;;;;;;;;5060665;28;11299;-74
2021/12/14 08:53:32;;;;;;;;;22.25;18.25;;;;;;;;5064305;28;11637;-74
2021/12/14 08:56:02;;;;;;;;;27.25;24.00;;;;;;;;5048285;28;11323;-75
2021/12/14 08:58:30;;;;;;;;;18.50;13.75;;;;;;;;5064246;28;11438;-75
2021/12/14 09:01:01;;;;;;;;;19.25;14.25;;;;;;;;5058238;28;11429;-75
2021/12/14 09:03:34;;;;;;;;;23.00;14.00;;;;;;;;5063083;28;11481;-75
2021/12/14 09:06:06;;;;;;;;;10.00;10.00;;;;;;;;5060818;28;11919;-76
2021/12/14 09:08:34;;;;;;;;;17.75;17.75;;;;;;;;5073047;28;11211;-76
2021/12/14 09:11:03;;;;;;;;;21.75;17.75;;;;;;;;5054752;28;11213;-74
2021/12/14 09:13:31;;;;;;;;;16.00;14.75;;;;;;;;5050623;28;11055;-73
2021/12/14 09:16:01;;;;;;;;;17.75;15.75;;;;;;;;5063674;28;11283;-75
2021/12/14 09:18:32;;;;;;;;;15.00;13.25;;;;;;;;5058913;28;11900;-75
2021/12/14 09:21:04;;;;;;;;;20.00;16.00;;;;;;;;5053432;28;11172;-76
2021/12/14 09:23:34;;;;;;;;;21.75;19.00;;;;;;;;5059699;28;11050;-77
2021/12/14 09:26:04;;;;;;;;;11.50;9.75;;;;;;;;5067236;28;11179;-75
2021/12/14 09:28:32;;;;;;;;;15.75;13.50;;;;;;;;5061585;28;11196;-75
2021/12/14 09:31:05;;;;;;;;;18.75;16.50;;;;;;;;5066583;28;11143;-75
2021/12/14 09:33:35;;;;;;;;;13.25;13.25;;;;;;;;5064107;28;11174;-76
2021/12/14 09:36:11;;;;;;;;;15.25;14.50;;;;;;;;5057254;28;11009;-77
2021/12/14 09:38:41;;;;;;;;;18.75;13.25;;;;;;;;5055339;28;11238;-77
2021/12/14 09:41:17;;;;;;;;;19.00;13.50;;;;;;;;5067879;28;11211;-76
2021/12/14 09:43:46;;;;;;;;;22.25;17.25;;;;;;;;5064113;28;11227;-77
2021/12/14 09:46:15;;;;;;;;;15.75;10.00;;;;;;;;5045413;28;11008;-78
2021/12/14 09:48:46;;;;;;;;;15.50;15.25;;;;;;;;5041423;28;11432;-75
2021/12/14 09:51:22;;;;;;;;;18.25;17.00;;;;;;;;5053087;28;11128;-76
2021/12/14 09:53:54;;;;;;;;;14.75;14.50;;;;;;;;5061795;28;11201;-76
2021/12/14 09:56:24;;;;;;;;;18.25;18.25;;;;;;;;5054134;28;10920;-75
2021/12/14 09:58:58;;;;;;;;;15.50;15.50;;;;;;;;5059883;28;10937;-74
2021/12/14 10:01:29;;;;;;;;;21.00;18.00;;;;;;;;5036041;28;11832;-75
2021/12/14 10:04:01;;;;;;;;;20.00;17.00;;;;;;;;5055919;28;10976;-76
2021/12/14 10:06:33;;;;;;;;;19.25;15.00;;;;;;;;5056381;28;11060;-76
2021/12/14 10:09:07;;;;;;;;;15.50;15.50;;;;;;;;5052457;28;11209;-76
2021/12/14 10:11:43;;;;;;;;;22.50;21.00;;;;;;;;5052768;28;11008;-77
2021/12/14 10:14:12;;;;;;;;;19.50;19.50;;;;;;;;5058239;28;11037;-74
2021/12/14 10:16:40;;;;;;;;;19.25;16.75;;;;;;;;5052297;28;11161;-77
2021/12/14 10:19:12;;;;;;;;;19.75;18.25;;;;;;;;5039342;28;11094;-76
2021/12/14 10:21:43;;;;;;;;;18.75;18.75;;;;;;;;5053366;28;11043;-77
2021/12/14 10:24:11;;;;;;;;;26.00;25.00;;;;;;;;5057213;28;11205;-76
2021/12/14 10:26:42;;;;;;;;;18.75;18.00;;;;;;;;5054936;28;11230;-76
2021/12/14 10:29:10;;;;;;;;;24.50;19.25;;;;;;;;5049046;28;11150;-75
2021/12/14 10:31:41;;;;;;;;;22.75;20.00;;;;;;;;5059892;28;11181;-76
2021/12/14 10:34:13;;;;;;;;;24.25;20.25;;;;;;;;5039983;28;11090;-76
2021/12/14 10:36:45;;;;;;;;;21.75;18.75;;;;;;;;5042316;28;10888;-76
2021/12/14 10:39:36;;;;;;;;;20.50;18.75;;;;;;;;5057435;28;11097;-76
2021/12/14 10:44:53;;;;;;;;;25.75;21.00;;;;;;;;5054302;28;10918;-77
2021/12/14 10:47:23;;;;;;;;;19.00;15.75;;;;;;;;5059664;28;10983;-75
2021/12/14 10:49:52;;;;;;;;;23.00;21.00;;;;;;;;5057442;28;10744;-77
2021/12/14 10:52:24;;;;;;;;;25.00;17.50;;;;;;;;5039022;28;10996;-75
2021/12/14 10:54:55;;;;;;;;;16.00;10.00;;;;;;;;5054191;28;10955;-77
2021/12/14 10:57:26;;;;;;;;;18.75;14.25;;;;;;;;5053975;28;10963;-76
2021/12/14 10:59:55;;;;;;;;;20.50;16.50;;;;;;;;5058373;28;11161;-77
2021/12/14 11:02:25;;;;;;;;;26.25;24.75;;;;;;;;5051337;28;10985;-76
2021/12/14 11:04:57;;;;;;;;;19.25;16.00;;;;;;;;5062551;28;10963;-76
2021/12/14 11:07:29;;;;;;;;;25.00;19.50;;;;;;;;5054600;28;11069;-75
2021/12/14 11:10:08;;;;;;;;;27.25;25.00;;;;;;;;5060436;28;10988;-76
2021/12/14 11:12:39;;;;;;;;;24.75;21.00;;;;;;;;5063509;28;10901;-76
2021/12/14 11:15:09;;;;;;;;;20.00;19.50;;;;;;;;5063231;28;10865;-75
2021/12/14 11:20:25;;;;;;;;;23.00;20.25;;;;;;;;5049940;28;10799;-76
2021/12/14 11:23:02;;;;;;;;;15.75;14.25;;;;;;;;5039735;28;10804;-75
2021/12/14 11:25:31;;;;;;;;;12.25;9.50;;;;;;;;5064086;28;10811;-76
2021/12/14 11:28:03;;;;;;;;;17.25;15.75;;;;;;;;5058562;28;10700;-75
2021/12/14 11:30:34;;;;;;;;;22.00;19.50;;;;;;;;5042862;28;10449;-76
2021/12/14 11:33:10;;;;;;;;;19.75;18.00;;;;;;;;5026158;28;10583;-77
2021/12/14 11:35:40;;;;;;;;;20.75;17.75;;;;;;;;5061145;28;10697;-76
2021/12/14 11:38:26;;;;;;;;;15.75;14.00;;;;;;;;5063988;28;11438;-76
2021/12/14 11:40:54;;;;;;;;;19.25;14.50;;;;;;;;5044894;28;10759;-76
2021/12/14 11:43:28;;;;;;;;;14.50;14.50;;;;;;;;5057654;28;10591;-77
2021/12/14 11:45:57;;;;;;;;;15.50;15.50;;;;;;;;5037216;28;10396;-77
2021/12/14 11:48:33;;;;;;;;;17.50;12.25;;;;;;;;5051946;28;10437;-77
2021/12/14 11:51:03;;;;;;;;;15.25;12.50;;;;;;;;5056474;28;10416;-77
2021/12/14 11:53:34;;;;;;;;;17.25;17.25;;;;;;;;5053188;28;10515;-80
2021/12/14 11:56:06;;;;;;;;;17.50;14.50;;;;;;;;5057896;28;10433;-77
2021/12/14 11:58:36;;;;;;;;;18.75;18.75;;;;;;;;5054120;28;11179;-76
2021/12/14 12:01:14;;;;;;;;;14.25;12.25;;;;;;;;5062355;28;10492;-76
2021/12/14 12:03:46;;;;;;;;;19.25;16.00;;;;;;;;5059327;28;10283;-73
2021/12/14 12:06:34;;;;;;;;;17.00;17.00;;;;;;;;5058641;28;10275;-75
2021/12/14 12:11:52;;;;;;;;;18.25;18.25;;;;;;;;5059990;28;10540;-74
2021/12/14 12:14:24;;;;;;;;;21.00;21.00;;;;;;;;5059191;28;10364;-73
2021/12/14 12:16:52;;;;;;;;;25.25;21.00;;;;;;;;5062030;28;10551;-76
2021/12/14 12:19:22;;;;;;;;;23.25;19.00;;;;;;;;5062296;28;10331;-75
2021/12/14 12:21:51;;;;;;;;;17.25;17.00;;;;;;;;5066740;28;10261;-76
2021/12/14 12:24:39;;;;;;;;;17.75;17.25;;;;;;;;5066238;28;10161;-78
2021/12/14 12:27:25;;;;;;;;;15.25;15.25;;;;;;;;5056483;28;10829;-76
2021/12/14 12:30:31;;;;;;;;;19.75;18.00;;;;;;;;5066254;28;10069;-75
2021/12/14 12:33:15;;;;;;;;;19.50;18.25;;;;;;;;5065543;28;10768;-73
2021/12/14 12:35:47;;;;;;;;;15.75;15.75;;;;;;;;5062272;28;10067;-75
2021/12/14 12:38:40;;;;;;;;;50.00;41.25;;;;;;;;5064480;28;10324;-75
2021/12/14 12:41:17;;;;;;;;;18.25;17.25;;;;;;;;5058897;28;11659;-75
2021/12/14 12:43:48;;;;;;;;;19.75;14.25;;;;;;;;5054884;28;10074;-76
2021/12/14 12:46:21;;;;;;;;;13.00;13.00;;;;;;;;5066236;28;10055;-75
2021/12/14 12:49:11;;;;;;;;;82.50;63.25;;;;;;;;5048863;28;10069;-75
2021/12/14 12:52:01;;;;;;;;;5.25;0.25;;;;;;;;5062639;28;11587;-75
2021/12/14 12:54:34;;;;;;;;;18.50;15.50;;;;;;;;5042651;28;10112;-75
2021/12/14 12:57:36;;;;;;;;;24.50;18.50;;;;;;;;5054005;28;9965;-75
2021/12/14 13:00:36;;;;;;;;;57.00;46.75;;;;;;;;5061908;28;9988;-75
2021/12/14 13:03:08;;;;;;;;;18.00;17.00;;;;;;;;5065219;28;11175;-75
2021/12/14 13:05:39;;;;;;;;;39.00;35.25;;;;;;;;5048811;28;10711;-75
2021/12/14 13:08:11;;;;;;;;;11.50;9.50;;;;;;;;5066205;28;10434;-76
2021/12/14 13:10:41;;;;;;;;;51.25;42.75;;;;;;;;5065271;28;10067;-76
2021/12/14 13:13:13;;;;;;;;;24.75;22.00;;;;;;;;5066968;28;10915;-76
2021/12/14 13:16:10;;;;;;;;;17.50;16.00;;;;;;;;5062573;28;10377;-75
2021/12/14 13:18:58;;;;;;;;;18.00;17.25;;;;;;;;5066767;28;10969;-76
2021/12/14 13:21:47;;;;;;;;;32.50;28.50;;;;;;;;5054449;28;10100;-77
2021/12/14 13:24:22;;;;;;;;;22.25;21.75;;;;;;;;5065213;28;10229;-75
2021/12/14 13:27:06;;;;;;;;;21.75;21.75;;;;;;;;5066380;28;10266;-76
2021/12/14 13:29:44;;;;;;;;;19.00;17.00;;;;;;;;5052166;28;10167;-77
2021/12/14 13:32:15;;;;;;;;;26.25;22.75;;;;;;;;5064581;28;10136;-76
2021/12/14 13:34:49;;;;;;;;;24.00;19.50;;;;;;;;5065030;28;10194;-74
2021/12/14 13:37:19;;;;;;;;;21.75;18.50;;;;;;;;5065001;28;10106;-76
2021/12/14 13:39:47;;;;;;;;;16.00;16.00;;;;;;;;5065793;28;10171;-76
2021/12/14 13:42:34;;;;;;;;;20.00;17.25;;;;;;;;5047016;28;10292;-76
2021/12/14 13:45:06;;;;;;;;;16.75;15.00;;;;;;;;5064877;28;10275;-77
2021/12/14 13:47:34;;;;;;;;;23.50;22.00;;;;;;;;5066450;28;10150;-74
2021/12/14 13:50:04;;;;;;;;;23.00;21.00;;;;;;;;5060092;28;10413;-77
2021/12/14 13:52:32;;;;;;;;;22.25;22.25;;;;;;;;5065816;28;10283;-75
2021/12/14 13:55:21;;;;;;;;;21.25;18.75;;;;;;;;5063177;28;10349;-77
2021/12/14 13:57:53;;;;;;;;;25.25;21.25;;;;;;;;5065149;28;10107;-74
2021/12/14 14:00:25;;;;;;;;;24.00;18.25;;;;;;;;5064144;28;10269;-76
2021/12/14 14:02:54;;;;;;;;;23.00;21.25;;;;;;;;5064587;28;10120;-77
2021/12/14 14:05:23;;;;;;;;;19.50;19.50;;;;;;;;5065719;28;10173;-75
2021/12/14 14:07:53;;;;;;;;;19.25;19.25;;;;;;;;5055255;28;10094;-76
2021/12/14 14:10:23;;;;;;;;;32.00;30.50;;;;;;;;5064768;28;10107;-77
2021/12/14 14:12:56;;;;;;;;;21.25;17.50;;;;;;;;5059601;28;10550;-76
2021/12/14 14:15:29;;;;;;;;;25.75;22.50;;;;;;;;5047594;28;10326;-76
2021/12/14 14:18:00;;;;;;;;;24.00;21.25;;;;;;;;5065082;28;10088;-76
2021/12/14 14:20:32;;;;;;;;;20.50;16.50;;;;;;;;5064084;28;10213;-76
2021/12/14 14:23:20;;;;;;;;;23.25;21.50;;;;;;;;5065168;28;10044;-76
2021/12/14 14:25:54;;;;;;;;;23.00;21.75;;;;;;;;5063491;28;10382;-76
2021/12/14 14:28:45;;;;;;;;;19.25;13.75;;;;;;;;5061712;28;10371;-77
2021/12/14 14:31:18;;;;;;;;;22.75;21.75;;;;;;;;5061375;28;11290;-75
2021/12/14 14:33:50;;;;;;;;;23.25;18.25;;;;;;;;5063078;28;10272;-77
2021/12/14 14:36:27;;;;;;;;;26.50;23.50;;;;;;;;5065218;28;10429;-77
2021/12/14 14:39:04;;;;;;;;;23.25;20.50;;;;;;;;5063335;28;10421;-76
2021/12/14 14:41:40;;;;;;;;;21.00;17.75;;;;;;;;5054892;28;10306;-76
2021/12/14 14:44:11;;;;;;;;;21.75;21.00;;;;;;;;5064162;28;11000;-77
2021/12/14 14:47:13;;;;;;;;;24.50;20.50;;;;;;;;5063455;28;10638;-75
2021/12/14 14:50:04;;;;;;;;;37.25;34.50;;;;;;;;5065205;28;10393;-76
2021/12/14 14:52:34;;;;;;;;;20.00;17.75;;;;;;;;5052918;28;10503;-76
2021/12/14 14:55:08;;;;;;;;;31.50;25.00;;;;;;;;5063010;28;11339;-77
2021/12/14 14:57:43;;;;;;;;;23.00;20.00;;;;;;;;5062891;28;10482;-76
2021/12/14 15:00:42;;;;;;;;;28.50;24.00;;;;;;;;5060071;28;10356;-75
2021/12/14 15:03:23;;;;;;;;;23.50;18.50;;;;;;;;5002766;28;10367;-75
2021/12/14 15:05:55;;;;;;;;;20.75;17.50;;;;;;;;4998672;28;10272;-75
2021/12/14 15:08:30;;;;;;;;;21.75;19.50;;;;;;;;4995917;28;10281;-75
2021/12/14 15:11:01;;;;;;;;;28.50;26.00;;;;;;;;4982735;28;10403;-75
2021/12/14 15:13:42;;;;;;;;;22.00;22.00;;;;;;;;4981355;28;11971;-76